createdAt,value
2019-03-28T00:00:03.915Z,1034.5009
2019-03-28T00:00:15.737Z,1034.4895
2019-03-28T00:00:27.621Z,1034.5209
2019-03-28T00:00:39.402Z,1034.5125
2019-03-28T00:00:51.203Z,1034.4909
2019-03-28T00:01:02.979Z,1034.4909
2019-03-28T00:01:14.774Z,1034.5207
2019-03-28T00:01:26.549Z,1034.5107
2019-03-28T00:01:38.370Z,1034.4895
2019-03-28T00:01:50.118Z,1034.4945
2019-03-28T00:02:01.859Z,1034.4731
2019-03-28T00:02:13.648Z,1034.4699
2019-03-28T00:02:25.444Z,1034.4616
2019-03-28T00:02:37.239Z,1034.491
2019-03-28T00:02:49.038Z,1034.4979
2019-03-28T00:03:00.867Z,1034.4632
2019-03-28T00:03:12.614Z,1034.4895
2019-03-28T00:03:24.378Z,1034.4895
2019-03-28T00:03:36.222Z,1034.4652
2019-03-28T00:03:48.015Z,1034.4814
2019-03-28T00:03:59.804Z,1034.4632
2019-03-28T00:04:11.568Z,1034.4831
2019-03-28T00:04:23.338Z,1034.4503
2019-03-28T00:04:35.113Z,1034.4733
2019-03-28T00:04:46.916Z,1034.4931
2019-03-28T00:04:58.718Z,1034.4338
2019-03-28T00:05:10.552Z,1034.4484
2019-03-28T00:05:22.323Z,1034.442
2019-03-28T00:05:34.113Z,1034.4453
2019-03-28T00:05:45.911Z,1034.4339
2019-03-28T00:05:58.103Z,1034.4273
2019-03-28T00:06:09.479Z,1034.4125
2019-03-28T00:06:21.225Z,1034.3929
2019-03-28T00:06:33.045Z,1034.4125
2019-03-28T00:06:44.812Z,1034.4287
2019-03-28T00:06:56.572Z,1034.4453
2019-03-28T00:07:08.353Z,1034.4404
2019-03-28T00:07:24.076Z,1034.4602
2019-03-28T00:07:33.962Z,1034.4322
2019-03-28T00:07:45.706Z,1034.4193
2019-03-28T00:07:57.492Z,1034.429
2019-03-28T00:08:12.227Z,1034.4372
2019-03-28T00:08:22.040Z,1034.4404
2019-03-28T00:08:33.843Z,1034.4273
2019-03-28T00:08:45.623Z,1034.4041
2019-03-28T00:08:57.445Z,1034.3863
2019-03-28T00:09:09.225Z,1034.4536
2019-03-28T00:09:21.024Z,1034.4306
2019-03-28T00:09:32.807Z,1034.4223
2019-03-28T00:09:45.117Z,1034.4158
2019-03-28T00:09:56.424Z,1034.4008
2019-03-28T00:10:08.174Z,1034.4388
2019-03-28T00:10:19.938Z,1034.4075
2019-03-28T00:10:31.771Z,1034.4271
2019-03-28T00:10:43.551Z,1034.4549
2019-03-28T00:10:55.326Z,1034.3712
2019-03-28T00:11:07.175Z,1034.437
2019-03-28T00:11:18.976Z,1034.4337
2019-03-28T00:11:30.750Z,1034.4287
2019-03-28T00:11:42.538Z,1034.4271
2019-03-28T00:11:54.362Z,1034.4174
2019-03-28T00:12:07.149Z,1034.4289
2019-03-28T00:12:18.929Z,1034.4191
2019-03-28T00:12:30.686Z,1034.4632
2019-03-28T00:12:42.442Z,1034.4271
2019-03-28T00:12:54.241Z,1034.424
2019-03-28T00:13:06.064Z,1034.4471
2019-03-28T00:13:17.837Z,1034.4552
2019-03-28T00:13:30.096Z,1034.4305
2019-03-28T00:13:41.413Z,1034.447
2019-03-28T00:13:53.220Z,1034.4537
2019-03-28T00:14:05.004Z,1034.4223
2019-03-28T00:14:16.798Z,1034.4521
2019-03-28T00:14:28.555Z,1034.4323
2019-03-28T00:14:40.347Z,1034.4095
2019-03-28T00:14:52.114Z,1034.4356
2019-03-28T00:15:03.876Z,1034.4207
2019-03-28T00:15:15.701Z,1034.4375
2019-03-28T00:15:27.446Z,1034.4111
2019-03-28T00:15:39.274Z,1034.4487
2019-03-28T00:15:51.050Z,1034.4208
2019-03-28T00:16:02.857Z,1034.406
2019-03-28T00:16:14.606Z,1034.4749
2019-03-28T00:16:26.379Z,1034.4207
2019-03-28T00:16:38.178Z,1034.3781
2019-03-28T00:16:50.124Z,1034.4077
2019-03-28T00:17:01.902Z,1034.4193
2019-03-28T00:17:13.667Z,1034.4306
2019-03-28T00:17:25.446Z,1034.4044
2019-03-28T00:17:37.311Z,1034.3714
2019-03-28T00:17:49.012Z,1034.4158
2019-03-28T00:18:00.807Z,1034.414
2019-03-28T00:18:12.596Z,1034.3833
2019-03-28T00:18:24.405Z,1034.4158
2019-03-28T00:18:36.190Z,1034.4273
2019-03-28T00:18:47.999Z,1034.4223
2019-03-28T00:18:59.755Z,1034.4094
2019-03-28T00:19:11.524Z,1034.4338
2019-03-28T00:19:23.343Z,1034.4404
2019-03-28T00:19:35.120Z,1034.4552
2019-03-28T00:19:46.902Z,1034.4584
2019-03-28T00:19:58.701Z,1034.4423
2019-03-28T00:20:10.433Z,1034.4783
2019-03-28T00:20:22.228Z,1034.4897
2019-03-28T00:20:34.015Z,1034.4471
2019-03-28T00:20:45.829Z,1034.4519
2019-03-28T00:20:57.659Z,1034.4599
2019-03-28T00:21:09.394Z,1034.465
2019-03-28T00:21:21.210Z,1034.4401
2019-03-28T00:21:32.971Z,1034.4536
2019-03-28T00:21:44.751Z,1034.4274
2019-03-28T00:21:56.584Z,1034.4373
2019-03-28T00:22:09.354Z,1034.4912
2019-03-28T00:22:21.156Z,1034.4765
2019-03-28T00:22:32.951Z,1034.4996
2019-03-28T00:22:44.761Z,1034.4699
2019-03-28T00:22:56.572Z,1034.4666
2019-03-28T00:23:08.374Z,1034.4932
2019-03-28T00:23:20.166Z,1034.4895
2019-03-28T00:23:32.194Z,1034.5045
2019-03-28T00:23:43.752Z,1034.4702
2019-03-28T00:23:55.533Z,1034.4733
2019-03-28T00:24:07.289Z,1034.4538
2019-03-28T00:24:20.052Z,1034.4506
2019-03-28T00:24:31.874Z,1034.4652
2019-03-28T00:24:43.699Z,1034.4803
2019-03-28T00:24:55.473Z,1034.518
2019-03-28T00:25:07.257Z,1034.4575
2019-03-28T00:25:19.044Z,1034.4343
2019-03-28T00:25:30.802Z,1034.477
2019-03-28T00:25:43.581Z,1034.4901
2019-03-28T00:25:55.390Z,1034.4279
2019-03-28T00:26:08.182Z,1034.4771
2019-03-28T00:26:29.285Z,1034.4919
2019-03-28T00:26:32.672Z,1034.4738
2019-03-28T00:26:44.532Z,1034.4376
2019-03-28T00:26:56.336Z,1034.484
2019-03-28T00:27:16.831Z,1034.456
2019-03-28T00:27:28.599Z,1034.4593
2019-03-28T00:27:40.393Z,1034.4477
2019-03-28T00:27:52.173Z,1034.4233
2019-03-28T00:28:03.938Z,1034.4626
2019-03-28T00:28:15.763Z,1034.4165
2019-03-28T00:28:27.552Z,1034.4299
2019-03-28T00:28:39.338Z,1034.4526
2019-03-28T00:28:51.107Z,1034.3952
2019-03-28T00:29:02.871Z,1034.4233
2019-03-28T00:29:14.666Z,1034.4267
2019-03-28T00:29:26.447Z,1034.4085
2019-03-28T00:29:38.209Z,1034.4284
2019-03-28T00:29:50.037Z,1034.4333
2019-03-28T00:30:01.878Z,1034.4333
2019-03-28T00:30:13.642Z,1034.4478
2019-03-28T00:30:25.422Z,1034.4248
2019-03-28T00:30:37.215Z,1034.4102
2019-03-28T00:30:49.016Z,1034.4234
2019-03-28T00:31:00.800Z,1034.4038
2019-03-28T00:31:12.589Z,1034.4136
2019-03-28T00:31:24.414Z,1034.4005
2019-03-28T00:31:36.200Z,1034.4548
2019-03-28T00:31:48.174Z,1034.4399
2019-03-28T00:32:00.366Z,1034.3989
2019-03-28T00:32:11.588Z,1034.4385
2019-03-28T00:32:23.407Z,1034.4251
2019-03-28T00:32:35.227Z,1034.4401
2019-03-28T00:32:47.063Z,1034.4301
2019-03-28T00:32:58.884Z,1034.4222
2019-03-28T00:33:10.679Z,1034.3991
2019-03-28T00:33:22.431Z,1034.4614
2019-03-28T00:33:34.240Z,1034.4451
2019-03-28T00:33:46.028Z,1034.4465
2019-03-28T00:33:57.820Z,1034.4188
2019-03-28T00:34:10.181Z,1034.4268
2019-03-28T00:34:21.439Z,1034.3891
2019-03-28T00:34:33.222Z,1034.4222
2019-03-28T00:34:44.973Z,1034.4204
2019-03-28T00:34:56.725Z,1034.4432
2019-03-28T00:35:08.505Z,1034.4647
2019-03-28T00:35:20.272Z,1034.4549
2019-03-28T00:35:32.052Z,1034.4713
2019-03-28T00:35:43.825Z,1034.4598
2019-03-28T00:35:55.574Z,1034.4353
2019-03-28T00:36:07.332Z,1034.478
2019-03-28T00:36:19.134Z,1034.4665
2019-03-28T00:36:30.933Z,1034.4565
2019-03-28T00:36:42.704Z,1034.4895
2019-03-28T00:36:54.465Z,1034.4548
2019-03-28T00:37:07.615Z,1034.4599
2019-03-28T00:37:19.005Z,1034.4287
2019-03-28T00:37:30.827Z,1034.4696
2019-03-28T00:37:42.633Z,1034.4532
2019-03-28T00:37:54.373Z,1034.4614
2019-03-28T00:38:06.157Z,1034.4516
2019-03-28T00:38:17.992Z,1034.4482
2019-03-28T00:38:29.776Z,1034.5057
2019-03-28T00:38:41.587Z,1034.4548
2019-03-28T00:38:53.352Z,1034.4466
2019-03-28T00:39:05.143Z,1034.458
2019-03-28T00:39:16.943Z,1034.432
2019-03-28T00:39:28.699Z,1034.4367
2019-03-28T00:39:40.475Z,1034.4696
2019-03-28T00:39:52.262Z,1034.3891
2019-03-28T00:40:04.082Z,1034.4235
2019-03-28T00:40:15.853Z,1034.4237
2019-03-28T00:40:27.616Z,1034.4204
2019-03-28T00:40:39.380Z,1034.4483
2019-03-28T00:40:51.154Z,1034.4648
2019-03-28T00:41:02.957Z,1034.4665
2019-03-28T00:41:14.714Z,1034.4567
2019-03-28T00:41:26.496Z,1034.4335
2019-03-28T00:41:38.300Z,1034.4256
2019-03-28T00:41:50.064Z,1034.4682
2019-03-28T00:42:01.881Z,1034.3892
2019-03-28T00:42:13.768Z,1034.4584
2019-03-28T00:42:25.505Z,1034.4058
2019-03-28T00:42:37.383Z,1034.4567
2019-03-28T00:42:49.182Z,1034.4189
2019-03-28T00:43:00.968Z,1034.414
2019-03-28T00:43:12.740Z,1034.437
2019-03-28T00:43:25.251Z,1034.4205
2019-03-28T00:43:36.352Z,1034.4238
2019-03-28T00:43:48.144Z,1034.4058
2019-03-28T00:44:00.713Z,1034.4403
2019-03-28T00:44:12.629Z,1034.4616
2019-03-28T00:44:24.390Z,1034.4204
2019-03-28T00:44:36.174Z,1034.4272
2019-03-28T00:44:47.968Z,1034.4024
2019-03-28T00:44:59.789Z,1034.3991
2019-03-28T00:45:11.598Z,1034.432
2019-03-28T00:45:23.365Z,1034.4138
2019-03-28T00:45:35.347Z,1034.4351
2019-03-28T00:45:47.122Z,1034.4285
2019-03-28T00:45:58.933Z,1034.427
2019-03-28T00:46:10.725Z,1034.4434
2019-03-28T00:46:22.531Z,1034.432
2019-03-28T00:46:34.302Z,1034.4385
2019-03-28T00:46:46.222Z,1034.4254
2019-03-28T00:46:57.918Z,1034.4204
2019-03-28T00:47:09.860Z,1034.4335
2019-03-28T00:47:21.616Z,1034.4368
2019-03-28T00:47:33.394Z,1034.409
2019-03-28T00:47:45.179Z,1034.4136
2019-03-28T00:47:56.970Z,1034.3891
2019-03-28T00:48:08.801Z,1034.4169
2019-03-28T00:48:20.571Z,1034.3679
2019-03-28T00:48:32.325Z,1034.4039
2019-03-28T00:48:44.123Z,1034.4057
2019-03-28T00:48:55.933Z,1034.4235
2019-03-28T00:49:07.718Z,1034.432
2019-03-28T00:49:19.503Z,1034.4121
2019-03-28T00:49:31.283Z,1034.3745
2019-03-28T00:49:43.227Z,1034.3989
2019-03-28T00:49:54.791Z,1034.3726
2019-03-28T00:50:06.588Z,1034.3597
2019-03-28T00:50:18.363Z,1034.3479
2019-03-28T00:50:32.897Z,1034.3725
2019-03-28T00:50:42.932Z,1034.371
2019-03-28T00:50:54.745Z,1034.3891
2019-03-28T00:51:06.516Z,1034.3579
2019-03-28T00:51:18.315Z,1034.3745
2019-03-28T00:51:30.077Z,1034.3349
2019-03-28T00:51:43.233Z,1034.3693
2019-03-28T00:51:54.609Z,1034.3891
2019-03-28T00:52:06.430Z,1034.3514
2019-03-28T00:52:18.197Z,1034.3676
2019-03-28T00:52:29.963Z,1034.3548
2019-03-28T00:52:41.782Z,1034.3101
2019-03-28T00:52:53.555Z,1034.3743
2019-03-28T00:53:05.359Z,1034.3696
2019-03-28T00:53:17.118Z,1034.3713
2019-03-28T00:53:28.899Z,1034.3352
2019-03-28T00:53:40.670Z,1034.3369
2019-03-28T00:53:52.470Z,1034.3828
2019-03-28T00:54:04.265Z,1034.35
2019-03-28T00:54:16.072Z,1034.3319
2019-03-28T00:54:27.879Z,1034.3698
2019-03-28T00:54:39.668Z,1034.3582
2019-03-28T00:54:51.494Z,1034.3468
2019-03-28T00:55:03.273Z,1034.3486
2019-03-28T00:55:15.080Z,1034.3419
2019-03-28T00:55:26.861Z,1034.3582
2019-03-28T00:55:38.661Z,1034.3466
2019-03-28T00:55:50.801Z,1034.3123
2019-03-28T00:56:02.579Z,1034.322
2019-03-28T00:56:14.352Z,1034.3436
2019-03-28T00:56:26.143Z,1034.3156
2019-03-28T00:56:45.189Z,1034.3403
2019-03-28T00:56:50.615Z,1034.2991
2019-03-28T00:57:02.423Z,1034.3139
2019-03-28T00:57:14.261Z,1034.3288
2019-03-28T00:57:26.096Z,1034.3123
2019-03-28T00:57:37.872Z,1034.3109
2019-03-28T00:57:49.670Z,1034.3289
2019-03-28T00:58:01.468Z,1034.3419
2019-03-28T00:58:13.219Z,1034.3386
2019-03-28T00:58:24.999Z,1034.3059
2019-03-28T00:58:36.760Z,1034.3092
2019-03-28T00:58:48.551Z,1034.3223
2019-03-28T00:59:00.373Z,1034.3139
2019-03-28T00:59:12.144Z,1034.324
2019-03-28T00:59:24.289Z,1034.324
2019-03-28T00:59:35.726Z,1034.3222
2019-03-28T00:59:47.522Z,1034.3092
2019-03-28T00:59:59.276Z,1034.3304
2019-03-28T01:00:11.075Z,1034.3123
2019-03-28T01:00:22.855Z,1034.332
2019-03-28T01:00:34.665Z,1034.3454
2019-03-28T01:00:46.439Z,1034.3093
2019-03-28T01:00:58.215Z,1034.3208
2019-03-28T01:01:10.030Z,1034.3404
2019-03-28T01:01:21.821Z,1034.3469
2019-03-28T01:01:33.639Z,1034.3437
2019-03-28T01:01:45.390Z,1034.3256
2019-03-28T01:01:57.165Z,1034.3338
2019-03-28T01:02:08.951Z,1034.3273
2019-03-28T01:02:21.200Z,1034.3353
2019-03-28T01:02:32.511Z,1034.3371
2019-03-28T01:02:44.320Z,1034.3386
2019-03-28T01:02:56.108Z,1034.3321
2019-03-28T01:03:07.894Z,1034.3353
2019-03-28T01:03:19.678Z,1034.3271
2019-03-28T01:03:31.468Z,1034.3503
2019-03-28T01:03:43.219Z,1034.3272
2019-03-28T01:03:54.994Z,1034.3125
2019-03-28T01:04:06.767Z,1034.3043
2019-03-28T01:04:18.539Z,1034.319
2019-03-28T01:04:30.322Z,1034.3255
2019-03-28T01:04:42.098Z,1034.3206
2019-03-28T01:04:53.893Z,1034.324
2019-03-28T01:05:05.680Z,1034.347
2019-03-28T01:05:17.442Z,1034.3289
2019-03-28T01:05:29.237Z,1034.3223
2019-03-28T01:05:40.989Z,1034.3668
2019-03-28T01:05:52.778Z,1034.3734
2019-03-28T01:06:04.588Z,1034.3651
2019-03-28T01:06:16.430Z,1034.3305
2019-03-28T01:06:28.183Z,1034.319
2019-03-28T01:06:39.971Z,1034.3208
2019-03-28T01:06:51.757Z,1034.3291
2019-03-28T01:07:03.536Z,1034.311
2019-03-28T01:07:15.360Z,1034.3405
2019-03-28T01:07:27.101Z,1034.3291
2019-03-28T01:07:38.882Z,1034.3157
2019-03-28T01:07:50.664Z,1034.3225
2019-03-28T01:08:02.478Z,1034.2948
2019-03-28T01:08:14.315Z,1034.3045
2019-03-28T01:08:26.100Z,1034.3292
2019-03-28T01:08:37.966Z,1034.3043
2019-03-28T01:08:49.699Z,1034.3323
2019-03-28T01:09:04.052Z,1034.2963
2019-03-28T01:09:14.468Z,1034.3223
2019-03-28T01:09:26.323Z,1034.2995
2019-03-28T01:09:38.161Z,1034.3192
2019-03-28T01:09:50.047Z,1034.296
2019-03-28T01:10:01.955Z,1034.3536
2019-03-28T01:10:13.800Z,1034.324
2019-03-28T01:10:25.621Z,1034.3486
2019-03-28T01:10:37.516Z,1034.3536
2019-03-28T01:10:49.359Z,1034.3666
2019-03-28T01:11:01.184Z,1034.3553
2019-03-28T01:11:13.085Z,1034.3323
2019-03-28T01:11:25.558Z,1034.3533
2019-03-28T01:11:37.405Z,1034.3616
2019-03-28T01:11:49.224Z,1034.3846
2019-03-28T01:12:01.009Z,1034.3763
2019-03-28T01:12:12.811Z,1034.3698
2019-03-28T01:12:24.656Z,1034.3582
2019-03-28T01:12:36.466Z,1034.3846
2019-03-28T01:12:48.418Z,1034.3829
2019-03-28T01:13:00.247Z,1034.3566
2019-03-28T01:13:12.065Z,1034.3795
2019-03-28T01:13:23.891Z,1034.3843
2019-03-28T01:13:35.648Z,1034.3416
2019-03-28T01:13:47.542Z,1034.3878
2019-03-28T01:13:59.473Z,1034.3729
2019-03-28T01:14:11.264Z,1034.3731
2019-03-28T01:14:23.091Z,1034.3958
2019-03-28T01:14:34.919Z,1034.3468
2019-03-28T01:14:46.739Z,1034.3319
2019-03-28T01:14:58.564Z,1034.3861
2019-03-28T01:15:10.419Z,1034.3695
2019-03-28T01:15:22.285Z,1034.3927
2019-03-28T01:15:34.184Z,1034.3452
2019-03-28T01:15:46.010Z,1034.3533
2019-03-28T01:15:57.793Z,1034.3826
2019-03-28T01:16:09.659Z,1034.3482
2019-03-28T01:16:21.474Z,1034.3731
2019-03-28T01:16:33.364Z,1034.3614
2019-03-28T01:16:45.253Z,1034.3221
2019-03-28T01:16:57.084Z,1034.3826
2019-03-28T01:17:08.846Z,1034.3941
2019-03-28T01:17:20.863Z,1034.3679
2019-03-28T01:17:32.648Z,1034.3859
2019-03-28T01:17:44.454Z,1034.3514
2019-03-28T01:17:56.290Z,1034.3795
2019-03-28T01:18:08.076Z,1034.3647
2019-03-28T01:18:20.190Z,1034.3843
2019-03-28T01:18:31.757Z,1034.3627
2019-03-28T01:18:43.689Z,1034.3907
2019-03-28T01:18:55.574Z,1034.3779
2019-03-28T01:19:07.566Z,1034.3531
2019-03-28T01:19:19.384Z,1034.3645
2019-03-28T01:19:31.185Z,1034.3662
2019-03-28T01:19:42.992Z,1034.3776
2019-03-28T01:19:54.891Z,1034.384
2019-03-28T01:20:06.776Z,1034.3728
2019-03-28T01:20:18.654Z,1034.3464
2019-03-28T01:20:30.528Z,1034.3613
2019-03-28T01:20:42.357Z,1034.3629
2019-03-28T01:20:54.118Z,1034.3511
2019-03-28T01:21:06.067Z,1034.3873
2019-03-28T01:21:17.901Z,1034.3645
2019-03-28T01:21:29.719Z,1034.3347
2019-03-28T01:21:41.548Z,1034.3627
2019-03-28T01:21:53.416Z,1034.2954
2019-03-28T01:22:05.250Z,1034.3397
2019-03-28T01:22:17.011Z,1034.3594
2019-03-28T01:22:28.842Z,1034.3511
2019-03-28T01:22:40.611Z,1034.3051
2019-03-28T01:22:52.418Z,1034.2954
2019-03-28T01:23:04.216Z,1034.3511
2019-03-28T01:23:15.953Z,1034.3087
2019-03-28T01:23:27.759Z,1034.3464
2019-03-28T01:23:39.546Z,1034.3201
2019-03-28T01:23:51.326Z,1034.338
2019-03-28T01:24:03.098Z,1034.343
2019-03-28T01:24:14.871Z,1034.3182
2019-03-28T01:24:26.655Z,1034.3577
2019-03-28T01:24:38.476Z,1034.3627
2019-03-28T01:24:50.350Z,1034.3511
2019-03-28T01:25:02.152Z,1034.3448
2019-03-28T01:25:14.013Z,1034.3544
2019-03-28T01:25:25.763Z,1034.3199
2019-03-28T01:25:37.538Z,1034.3479
2019-03-28T01:25:49.313Z,1034.3889
2019-03-28T01:26:01.115Z,1034.3526
2019-03-28T01:26:12.908Z,1034.3709
2019-03-28T01:26:24.694Z,1034.3284
2019-03-28T01:26:36.525Z,1034.3413
2019-03-28T01:26:56.948Z,1034.3496
2019-03-28T01:27:01.884Z,1034.3084
2019-03-28T01:27:14.189Z,1034.3494
2019-03-28T01:27:26.454Z,1034.338
2019-03-28T01:27:38.589Z,1034.3396
2019-03-28T01:27:50.424Z,1034.3461
2019-03-28T01:28:02.165Z,1034.3248
2019-03-28T01:28:13.960Z,1034.3085
2019-03-28T01:28:25.802Z,1034.3591
2019-03-28T01:28:37.711Z,1034.3233
2019-03-28T01:28:49.505Z,1034.3249
2019-03-28T01:29:01.275Z,1034.3364
2019-03-28T01:29:13.465Z,1034.3348
2019-03-28T01:29:25.800Z,1034.3447
2019-03-28T01:29:37.608Z,1034.3199
2019-03-28T01:29:49.830Z,1034.3347
2019-03-28T01:30:02.512Z,1034.3398
2019-03-28T01:30:14.298Z,1034.3265
2019-03-28T01:30:26.173Z,1034.3149
2019-03-28T01:30:38.425Z,1034.3182
2019-03-28T01:30:51.761Z,1034.3215
2019-03-28T01:31:05.390Z,1034.3415
2019-03-28T01:31:18.314Z,1034.3398
2019-03-28T01:31:30.695Z,1034.3364
2019-03-28T01:31:42.989Z,1034.3282
2019-03-28T01:31:55.389Z,1034.3824
2019-03-28T01:32:07.871Z,1034.3597
2019-03-28T01:32:20.319Z,1034.3234
2019-03-28T01:32:32.435Z,1034.3448
2019-03-28T01:32:44.547Z,1034.3397
2019-03-28T01:32:56.436Z,1034.3201
2019-03-28T01:33:08.646Z,1034.3087
2019-03-28T01:33:20.511Z,1034.3084
2019-03-28T01:33:32.411Z,1034.3284
2019-03-28T01:33:44.286Z,1034.3265
2019-03-28T01:33:56.156Z,1034.3103
2019-03-28T01:34:08.198Z,1034.2873
2019-03-28T01:34:20.004Z,1034.3018
2019-03-28T01:34:31.859Z,1034.2969
2019-03-28T01:34:43.706Z,1034.2939
2019-03-28T01:34:55.557Z,1034.3398
2019-03-28T01:35:07.428Z,1034.3184
2019-03-28T01:35:19.295Z,1034.3249
2019-03-28T01:35:31.167Z,1034.3315
2019-03-28T01:35:43.326Z,1034.3496
2019-03-28T01:35:55.283Z,1034.356
2019-03-28T01:36:07.167Z,1034.3477
2019-03-28T01:36:19.041Z,1034.348
2019-03-28T01:36:30.953Z,1034.3266
2019-03-28T01:36:42.856Z,1034.3151
2019-03-28T01:36:54.713Z,1034.307
2019-03-28T01:37:06.578Z,1034.3349
2019-03-28T01:37:18.426Z,1034.3118
2019-03-28T01:37:30.315Z,1034.307
2019-03-28T01:37:42.545Z,1034.289
2019-03-28T01:37:54.709Z,1034.3039
2019-03-28T01:38:07.084Z,1034.3154
2019-03-28T01:38:20.202Z,1034.3037
2019-03-28T01:38:33.324Z,1034.3269
2019-03-28T01:38:45.536Z,1034.3237
2019-03-28T01:38:57.486Z,1034.3218
2019-03-28T01:39:10.146Z,1034.2941
2019-03-28T01:39:21.286Z,1034.3386
2019-03-28T01:39:32.371Z,1034.35
2019-03-28T01:39:44.533Z,1034.3321
2019-03-28T01:39:56.936Z,1034.3454
2019-03-28T01:40:09.079Z,1034.332
2019-03-28T01:40:21.332Z,1034.3385
2019-03-28T01:40:34.434Z,1034.3421
2019-03-28T01:40:46.360Z,1034.3421
2019-03-28T01:40:58.239Z,1034.3404
2019-03-28T01:41:10.114Z,1034.35
2019-03-28T01:41:22.482Z,1034.3651
2019-03-28T01:41:35.472Z,1034.3455
2019-03-28T01:41:47.891Z,1034.3223
2019-03-28T01:42:00.411Z,1034.3471
2019-03-28T01:42:12.825Z,1034.314
2019-03-28T01:42:24.801Z,1034.2882
2019-03-28T01:42:36.720Z,1034.2961
2019-03-28T01:42:49.231Z,1034.2895
2019-03-28T01:43:01.273Z,1034.2897
2019-03-28T01:43:13.156Z,1034.3208
2019-03-28T01:43:25.091Z,1034.3438
2019-03-28T01:43:36.999Z,1034.3276
2019-03-28T01:43:48.868Z,1034.3491
2019-03-28T01:44:00.674Z,1034.3785
2019-03-28T01:44:12.673Z,1034.3522
2019-03-28T01:44:24.575Z,1034.3901
2019-03-28T01:44:36.874Z,1034.3687
2019-03-28T01:44:49.500Z,1034.3392
2019-03-28T01:45:01.592Z,1034.3308
2019-03-28T01:45:13.708Z,1034.3276
2019-03-28T01:45:25.930Z,1034.3441
2019-03-28T01:45:37.789Z,1034.3571
2019-03-28T01:45:49.647Z,1034.3703
2019-03-28T01:46:01.506Z,1034.3293
2019-03-28T01:46:13.374Z,1034.3491
2019-03-28T01:46:25.304Z,1034.331
2019-03-28T01:46:37.187Z,1034.336
2019-03-28T01:46:49.033Z,1034.3721
2019-03-28T01:47:01.034Z,1034.3408
2019-03-28T01:47:12.895Z,1034.3293
2019-03-28T01:47:24.756Z,1034.3259
2019-03-28T01:47:36.726Z,1034.3441
2019-03-28T01:47:48.645Z,1034.3623
2019-03-28T01:48:00.524Z,1034.336
2019-03-28T01:48:12.420Z,1034.3558
2019-03-28T01:48:24.259Z,1034.3327
2019-03-28T01:48:36.743Z,1034.372
2019-03-28T01:48:48.863Z,1034.3441
2019-03-28T01:49:03.555Z,1034.3575
2019-03-28T01:49:13.607Z,1034.3608
2019-03-28T01:49:25.495Z,1034.3312
2019-03-28T01:49:37.402Z,1034.3195
2019-03-28T01:49:49.295Z,1034.3281
2019-03-28T01:50:01.166Z,1034.3509
2019-03-28T01:50:13.008Z,1034.321
2019-03-28T01:50:24.875Z,1034.3492
2019-03-28T01:50:36.743Z,1034.3277
2019-03-28T01:50:48.634Z,1034.3509
2019-03-28T01:51:00.479Z,1034.3557
2019-03-28T01:51:12.425Z,1034.3327
2019-03-28T01:51:24.253Z,1034.3148
2019-03-28T01:51:36.083Z,1034.3262
2019-03-28T01:51:47.942Z,1034.3295
2019-03-28T01:51:59.758Z,1034.3621
2019-03-28T01:52:12.650Z,1034.3425
2019-03-28T01:52:24.485Z,1034.346
2019-03-28T01:52:36.307Z,1034.3443
2019-03-28T01:52:48.171Z,1034.3197
2019-03-28T01:52:59.965Z,1034.341
2019-03-28T01:53:12.261Z,1034.3376
2019-03-28T01:53:23.684Z,1034.295
2019-03-28T01:53:35.505Z,1034.3295
2019-03-28T01:53:47.330Z,1034.3032
2019-03-28T01:53:59.185Z,1034.2885
2019-03-28T01:54:11.105Z,1034.2855
2019-03-28T01:54:23.006Z,1034.3442
2019-03-28T01:54:34.832Z,1034.285
2019-03-28T01:54:47.672Z,1034.3032
2019-03-28T01:54:59.553Z,1034.29
2019-03-28T01:55:11.369Z,1034.3048
2019-03-28T01:55:23.229Z,1034.267
2019-03-28T01:55:35.048Z,1034.2327
2019-03-28T01:55:46.935Z,1034.2834
2019-03-28T01:55:58.815Z,1034.2801
2019-03-28T01:56:11.228Z,1034.2489
2019-03-28T01:56:24.936Z,1034.2426
2019-03-28T01:56:35.268Z,1034.2537
2019-03-28T01:56:47.114Z,1034.252
2019-03-28T01:57:10.191Z,1034.2701
2019-03-28T01:57:12.803Z,1034.2276
2019-03-28T01:57:24.592Z,1034.2375
2019-03-28T01:57:36.495Z,1034.2536
2019-03-28T01:57:48.306Z,1034.2998
2019-03-28T01:58:00.118Z,1034.2718
2019-03-28T01:58:11.909Z,1034.2504
2019-03-28T01:58:23.696Z,1034.2866
2019-03-28T01:58:35.495Z,1034.2423
2019-03-28T01:58:47.280Z,1034.2373
2019-03-28T01:58:59.111Z,1034.2669
2019-03-28T01:59:10.870Z,1034.2551
2019-03-28T01:59:22.660Z,1034.2683
2019-03-28T01:59:34.484Z,1034.2354
2019-03-28T01:59:46.369Z,1034.2291
2019-03-28T01:59:58.050Z,1034.265
2019-03-28T02:00:09.847Z,1034.2603
2019-03-28T02:00:21.634Z,1034.2487
2019-03-28T02:00:33.435Z,1034.242
2019-03-28T02:00:45.223Z,1034.2373
2019-03-28T02:00:57.036Z,1034.2371
2019-03-28T02:01:08.811Z,1034.2651
2019-03-28T02:01:21.559Z,1034.2553
2019-03-28T02:01:33.344Z,1034.2537
2019-03-28T02:01:45.108Z,1034.249
2019-03-28T02:01:56.876Z,1034.2668
2019-03-28T02:02:08.650Z,1034.2325
2019-03-28T02:02:20.412Z,1034.257
2019-03-28T02:02:32.231Z,1034.267
2019-03-28T02:02:44.004Z,1034.2208
2019-03-28T02:02:55.805Z,1034.2556
2019-03-28T02:03:07.613Z,1034.2523
2019-03-28T02:03:19.410Z,1034.2948
2019-03-28T02:03:31.146Z,1034.2866
2019-03-28T02:03:42.917Z,1034.295
2019-03-28T02:03:54.740Z,1034.2883
2019-03-28T02:04:06.510Z,1034.3063
2019-03-28T02:04:18.411Z,1034.295
2019-03-28T02:04:30.228Z,1034.2868
2019-03-28T02:04:42.007Z,1034.2996
2019-03-28T02:04:53.778Z,1034.2966
2019-03-28T02:05:05.588Z,1034.3029
2019-03-28T02:05:18.185Z,1034.3063
2019-03-28T02:05:29.103Z,1034.3048
2019-03-28T02:05:40.914Z,1034.3343
2019-03-28T02:05:52.692Z,1034.3538
2019-03-28T02:06:04.520Z,1034.3015
2019-03-28T02:06:16.267Z,1034.3112
2019-03-28T02:06:28.035Z,1034.3129
2019-03-28T02:06:39.803Z,1034.3048
2019-03-28T02:06:51.572Z,1034.3193
2019-03-28T02:07:03.356Z,1034.3031
2019-03-28T02:07:15.154Z,1034.3735
2019-03-28T02:07:26.932Z,1034.3376
2019-03-28T02:07:38.739Z,1034.2998
2019-03-28T02:07:50.607Z,1034.3194
2019-03-28T02:08:02.792Z,1034.336
2019-03-28T02:08:14.128Z,1034.3688
2019-03-28T02:08:25.862Z,1034.357
2019-03-28T02:08:37.643Z,1034.3178
2019-03-28T02:08:49.432Z,1034.3554
2019-03-28T02:09:01.210Z,1034.3557
2019-03-28T02:09:13.068Z,1034.3474
2019-03-28T02:09:24.872Z,1034.3588
2019-03-28T02:09:36.643Z,1034.3573
2019-03-28T02:09:48.430Z,1034.3409
2019-03-28T02:10:00.298Z,1034.3476
2019-03-28T02:10:11.979Z,1034.3443
2019-03-28T02:10:24.183Z,1034.3542
2019-03-28T02:10:35.530Z,1034.3555
2019-03-28T02:10:47.323Z,1034.3785
2019-03-28T02:10:59.079Z,1034.3656
2019-03-28T02:11:10.841Z,1034.3525
2019-03-28T02:11:22.618Z,1034.3638
2019-03-28T02:11:34.389Z,1034.3475
2019-03-28T02:11:46.182Z,1034.346
2019-03-28T02:11:58.001Z,1034.3048
2019-03-28T02:12:09.786Z,1034.3673
2019-03-28T02:12:21.604Z,1034.341
2019-03-28T02:12:33.377Z,1034.3413
2019-03-28T02:12:45.202Z,1034.364
2019-03-28T02:12:56.966Z,1034.3623
2019-03-28T02:13:08.732Z,1034.3541
2019-03-28T02:13:20.516Z,1034.3607
2019-03-28T02:13:32.295Z,1034.3623
2019-03-28T02:13:44.093Z,1034.3789
2019-03-28T02:13:55.906Z,1034.379
2019-03-28T02:14:07.661Z,1034.3771
2019-03-28T02:14:19.569Z,1034.3792
2019-03-28T02:14:31.400Z,1034.3903
2019-03-28T02:14:43.195Z,1034.3919
2019-03-28T02:14:54.961Z,1034.4067
2019-03-28T02:15:06.784Z,1034.3627
2019-03-28T02:15:18.555Z,1034.3641
2019-03-28T02:15:30.364Z,1034.3414
2019-03-28T02:15:42.096Z,1034.3625
2019-03-28T02:15:53.911Z,1034.3364
2019-03-28T02:16:05.722Z,1034.3101